sensor_id;sensor_type;location;lat;lon;timestamp;pressure;altitude;pressure_sealevel;temperature;humidity
31538;BME280;18147;51.952;6.146;2023-04-23T00:00:05;100741.31;;;10.10;100.00
31538;BME280;18147;51.952;6.146;2023-04-23T00:02:38;100736.63;;;10.13;100.00
31538;BME280;18147;51.952;6.146;2023-04-23T00:05:05;100732.47;;;10.09;100.00
31538;BME280;18147;51.952;6.146;2023-04-23T00:07:32;100730.28;;;10.02;100.00
31538;BME280;18147;51.952;6.146;2023-04-23T00:09:59;100732.84;;;10.03;100.00
31538;BME280;18147;51.952;6.146;2023-04-23T00:12:26;100733.13;;;9.99;100.00
31538;BME280;18147;51.952;6.146;2023-04-23T00:14:52;100736.97;;;9.95;100.00
31538;BME280;18147;51.952;6.146;2023-04-23T00:17:17;100728.13;;;9.94;100.00
31538;BME280;18147;51.952;6.146;2023-04-23T00:19:44;100726.38;;;9.93;100.00
31538;BME280;18147;51.952;6.146;2023-04-23T00:22:09;100728.13;;;9.94;100.00
31538;BME280;18147;51.952;6.146;2023-04-23T00:24:35;100723.44;;;9.98;100.00
31538;BME280;18147;51.952;6.146;2023-04-23T00:27:03;100724.97;;;9.88;100.00
31538;BME280;18147;51.952;6.146;2023-04-23T00:29:28;100725.63;;;9.91;100.00
31538;BME280;18147;51.952;6.146;2023-04-23T00:31:54;100728.19;;;9.93;100.00
31538;BME280;18147;51.952;6.146;2023-04-23T00:34:20;100729.53;;;9.85;100.00
31538;BME280;18147;51.952;6.146;2023-04-23T00:36:45;100716.38;;;9.68;100.00
31538;BME280;18147;51.952;6.146;2023-04-23T00:39:10;100716.03;;;9.74;100.00
31538;BME280;18147;51.952;6.146;2023-04-23T00:41:36;100712.50;;;9.74;100.00
31538;BME280;18147;51.952;6.146;2023-04-23T00:44:02;100710.50;;;9.77;100.00
31538;BME280;18147;51.952;6.146;2023-04-23T00:46:28;100713.09;;;9.79;100.00
31538;BME280;18147;51.952;6.146;2023-04-23T00:48:54;100711.06;;;9.82;100.00
31538;BME280;18147;51.952;6.146;2023-04-23T00:51:22;100715.16;;;9.74;100.00
31538;BME280;18147;51.952;6.146;2023-04-23T00:53:49;100714.22;;;9.75;100.00
31538;BME280;18147;51.952;6.146;2023-04-23T00:56:16;100709.19;;;9.70;100.00
31538;BME280;18147;51.952;6.146;2023-04-23T00:58:42;100701.19;;;9.70;100.00
31538;BME280;18147;51.952;6.146;2023-04-23T01:01:08;100707.28;;;9.72;100.00
31538;BME280;18147;51.952;6.146;2023-04-23T01:03:35;100703.94;;;9.69;100.00
31538;BME280;18147;51.952;6.146;2023-04-23T01:06:03;100701.75;;;9.61;100.00
31538;BME280;18147;51.952;6.146;2023-04-23T01:08:29;100697.47;;;9.58;100.00
31538;BME280;18147;51.952;6.146;2023-04-23T01:10:56;100693.31;;;9.54;100.00
31538;BME280;18147;51.952;6.146;2023-04-23T01:13:22;100698.91;;;9.50;100.00
31538;BME280;18147;51.952;6.146;2023-04-23T01:15:51;100706.03;;;9.49;100.00
31538;BME280;18147;51.952;6.146;2023-04-23T01:18:16;100687.97;;;9.40;100.00
31538;BME280;18147;51.952;6.146;2023-04-23T01:20:44;100695.16;;;9.38;100.00
31538;BME280;18147;51.952;6.146;2023-04-23T01:23:10;100687.78;;;9.29;100.00
31538;BME280;18147;51.952;6.146;2023-04-23T01:25:36;100682.13;;;9.33;100.00
31538;BME280;18147;51.952;6.146;2023-04-23T01:28:02;100685.84;;;9.31;100.00
31538;BME280;18147;51.952;6.146;2023-04-23T01:30:29;100682.63;;;9.26;100.00
31538;BME280;18147;51.952;6.146;2023-04-23T01:32:55;100680.34;;;9.20;100.00
31538;BME280;18147;51.952;6.146;2023-04-23T01:35:22;100686.41;;;9.22;100.00
31538;BME280;18147;51.952;6.146;2023-04-23T01:37:48;100676.25;;;9.14;100.00
31538;BME280;18147;51.952;6.146;2023-04-23T01:40:18;100682.31;;;9.16;100.00
31538;BME280;18147;51.952;6.146;2023-04-23T01:42:43;100681.19;;;9.20;100.00
31538;BME280;18147;51.952;6.146;2023-04-23T01:45:10;100672.16;;;9.23;100.00
31538;BME280;18147;51.952;6.146;2023-04-23T01:47:36;100663.69;;;9.16;100.00
31538;BME280;18147;51.952;6.146;2023-04-23T01:50:02;100661.22;;;9.27;100.00
31538;BME280;18147;51.952;6.146;2023-04-23T01:52:29;100659.25;;;9.31;100.00
31538;BME280;18147;51.952;6.146;2023-04-23T01:54:55;100657.16;;;9.36;100.00
31538;BME280;18147;51.952;6.146;2023-04-23T01:57:21;100661.72;;;9.48;100.00
31538;BME280;18147;51.952;6.146;2023-04-23T01:59:54;100655.19;;;9.54;100.00
31538;BME280;18147;51.952;6.146;2023-04-23T02:02:23;100659.56;;;9.55;100.00
31538;BME280;18147;51.952;6.146;2023-04-23T02:04:49;100657.53;;;9.58;100.00
31538;BME280;18147;51.952;6.146;2023-04-23T02:07:17;100656.03;;;9.54;100.00
31538;BME280;18147;51.952;6.146;2023-04-23T02:09:43;100651.28;;;9.59;100.00
31538;BME280;18147;51.952;6.146;2023-04-23T02:12:08;100657.47;;;9.46;100.00
31538;BME280;18147;51.952;6.146;2023-04-23T02:14:34;100655.47;;;9.35;100.00
31538;BME280;18147;51.952;6.146;2023-04-23T02:16:59;100658.50;;;9.29;100.00
31538;BME280;18147;51.952;6.146;2023-04-23T02:19:24;100651.53;;;9.26;100.00
31538;BME280;18147;51.952;6.146;2023-04-23T02:21:50;100650.94;;;9.07;100.00
31538;BME280;18147;51.952;6.146;2023-04-23T02:24:16;100649.41;;;8.89;100.00
31538;BME280;18147;51.952;6.146;2023-04-23T02:26:41;100647.59;;;8.89;100.00
31538;BME280;18147;51.952;6.146;2023-04-23T02:29:07;100646.28;;;8.96;100.00
31538;BME280;18147;51.952;6.146;2023-04-23T02:31:33;100652.66;;;9.08;100.00
31538;BME280;18147;51.952;6.146;2023-04-23T02:33:58;100648.97;;;9.11;100.00
31538;BME280;18147;51.952;6.146;2023-04-23T02:36:23;100644.09;;;9.03;100.00
31538;BME280;18147;51.952;6.146;2023-04-23T02:38:49;100643.88;;;8.92;100.00
31538;BME280;18147;51.952;6.146;2023-04-23T02:41:15;100643.00;;;8.77;100.00
31538;BME280;18147;51.952;6.146;2023-04-23T02:43:41;100646.28;;;8.96;100.00
31538;BME280;18147;51.952;6.146;2023-04-23T02:46:06;100646.41;;;9.23;100.00
31538;BME280;18147;51.952;6.146;2023-04-23T02:48:39;100640.53;;;9.32;100.00
31538;BME280;18147;51.952;6.146;2023-04-23T02:51:07;100635.88;;;9.36;100.00
31538;BME280;18147;51.952;6.146;2023-04-23T02:53:33;100638.53;;;9.36;100.00
31538;BME280;18147;51.952;6.146;2023-04-23T02:55:59;100641.50;;;9.46;100.00
31538;BME280;18147;51.952;6.146;2023-04-23T02:58:25;100638.03;;;9.44;100.00
31538;BME280;18147;51.952;6.146;2023-04-23T03:00:53;100635.97;;;9.34;100.00
31538;BME280;18147;51.952;6.146;2023-04-23T03:03:19;100640.34;;;9.50;100.00
31538;BME280;18147;51.952;6.146;2023-04-23T03:05:45;100633.22;;;9.50;100.00
31538;BME280;18147;51.952;6.146;2023-04-23T03:08:11;100634.81;;;9.53;100.00
31538;BME280;18147;51.952;6.146;2023-04-23T03:10:36;100629.13;;;9.45;100.00
31538;BME280;18147;51.952;6.146;2023-04-23T03:13:03;100637.41;;;9.40;100.00
31538;BME280;18147;51.952;6.146;2023-04-23T03:15:28;100629.81;;;9.34;100.00
31538;BME280;18147;51.952;6.146;2023-04-23T03:17:55;100626.94;;;9.37;100.00
31538;BME280;18147;51.952;6.146;2023-04-23T03:20:20;100619.13;;;9.48;100.00
31538;BME280;18147;51.952;6.146;2023-04-23T03:22:46;100624.28;;;9.37;100.00
31538;BME280;18147;51.952;6.146;2023-04-23T03:25:12;100612.97;;;9.05;100.00
31538;BME280;18147;51.952;6.146;2023-04-23T03:27:40;100626.44;;;9.02;100.00
31538;BME280;18147;51.952;6.146;2023-04-23T03:30:07;100619.97;;;9.06;100.00
31538;BME280;18147;51.952;6.146;2023-04-23T03:32:35;100624.25;;;8.94;100.00
31538;BME280;18147;51.952;6.146;2023-04-23T03:35:00;100624.72;;;9.01;100.00
31538;BME280;18147;51.952;6.146;2023-04-23T03:37:26;100617.50;;;8.89;100.00
31538;BME280;18147;51.952;6.146;2023-04-23T03:39:52;100628.75;;;8.78;100.00
31538;BME280;18147;51.952;6.146;2023-04-23T03:42:18;100628.72;;;8.64;100.00
31538;BME280;18147;51.952;6.146;2023-04-23T03:44:44;100626.72;;;8.67;100.00
31538;BME280;18147;51.952;6.146;2023-04-23T03:47:09;100623.13;;;8.68;100.00
31538;BME280;18147;51.952;6.146;2023-04-23T03:49:35;100624.91;;;8.68;100.00
31538;BME280;18147;51.952;6.146;2023-04-23T03:52:02;100627.09;;;8.61;100.00
31538;BME280;18147;51.952;6.146;2023-04-23T03:54:29;100619.22;;;8.60;100.00
31538;BME280;18147;51.952;6.146;2023-04-23T03:57:13;100616.28;;;8.64;100.00
31538;BME280;18147;51.952;6.146;2023-04-23T04:00:08;100619.59;;;8.68;100.00
31538;BME280;18147;51.952;6.146;2023-04-23T04:02:40;100616.41;;;8.47;100.00
31538;BME280;18147;51.952;6.146;2023-04-23T04:05:06;100617.03;;;8.66;100.00
31538;BME280;18147;51.952;6.146;2023-04-23T04:07:31;100613.25;;;8.70;100.00
31538;BME280;18147;51.952;6.146;2023-04-23T04:09:58;100611.63;;;8.68;100.00
31538;BME280;18147;51.952;6.146;2023-04-23T04:12:24;100607.75;;;8.59;100.00
31538;BME280;18147;51.952;6.146;2023-04-23T04:14:50;100610.72;;;8.69;100.00
31538;BME280;18147;51.952;6.146;2023-04-23T04:17:15;100611.25;;;8.60;100.00
31538;BME280;18147;51.952;6.146;2023-04-23T04:19:41;100618.31;;;8.75;100.00
31538;BME280;18147;51.952;6.146;2023-04-23T04:22:08;100610.66;;;8.85;100.00
31538;BME280;18147;51.952;6.146;2023-04-23T04:24:33;100612.81;;;8.92;100.00
31538;BME280;18147;51.952;6.146;2023-04-23T04:27:00;100615.34;;;9.10;100.00
31538;BME280;18147;51.952;6.146;2023-04-23T04:29:26;100616.78;;;9.15;100.00
31538;BME280;18147;51.952;6.146;2023-04-23T04:31:54;100615.81;;;9.30;100.00
31538;BME280;18147;51.952;6.146;2023-04-23T04:34:20;100604.59;;;9.25;100.00
31538;BME280;18147;51.952;6.146;2023-04-23T04:36:46;100611.63;;;9.26;100.00
31538;BME280;18147;51.952;6.146;2023-04-23T04:39:12;100599.75;;;9.32;100.00
31538;BME280;18147;51.952;6.146;2023-04-23T04:41:39;100601.66;;;9.44;100.00
31538;BME280;18147;51.952;6.146;2023-04-23T04:44:06;100613.25;;;9.43;100.00
31538;BME280;18147;51.952;6.146;2023-04-23T04:46:34;100606.72;;;9.49;100.00
31538;BME280;18147;51.952;6.146;2023-04-23T04:49:08;100600.44;;;9.50;100.00
31538;BME280;18147;51.952;6.146;2023-04-23T04:51:36;100609.53;;;9.60;100.00
31538;BME280;18147;51.952;6.146;2023-04-23T04:54:02;100609.59;;;9.87;100.00
31538;BME280;18147;51.952;6.146;2023-04-23T04:56:28;100606.84;;;10.16;100.00
31538;BME280;18147;51.952;6.146;2023-04-23T04:58:53;100610.06;;;10.21;100.00
31538;BME280;18147;51.952;6.146;2023-04-23T05:01:20;100609.50;;;10.16;100.00
31538;BME280;18147;51.952;6.146;2023-04-23T05:03:48;100611.25;;;10.02;100.00
31538;BME280;18147;51.952;6.146;2023-04-23T05:06:14;100611.09;;;10.18;100.00
31538;BME280;18147;51.952;6.146;2023-04-23T05:08:40;100605.63;;;10.61;100.00
31538;BME280;18147;51.952;6.146;2023-04-23T05:11:06;100605.38;;;11.04;100.00
31538;BME280;18147;51.952;6.146;2023-04-23T05:13:32;100598.66;;;11.11;100.00
31538;BME280;18147;51.952;6.146;2023-04-23T05:15:58;100600.78;;;10.80;100.00
31538;BME280;18147;51.952;6.146;2023-04-23T05:18:24;100604.59;;;10.76;100.00
31538;BME280;18147;51.952;6.146;2023-04-23T05:20:49;100603.22;;;10.71;100.00
31538;BME280;18147;51.952;6.146;2023-04-23T05:23:15;100602.19;;;10.59;100.00
31538;BME280;18147;51.952;6.146;2023-04-23T05:25:40;100608.56;;;10.44;100.00
31538;BME280;18147;51.952;6.146;2023-04-23T05:28:06;100606.91;;;10.55;100.00
31538;BME280;18147;51.952;6.146;2023-04-23T05:30:33;100605.59;;;10.48;100.00
31538;BME280;18147;51.952;6.146;2023-04-23T05:32:58;100609.56;;;10.55;100.00
31538;BME280;18147;51.952;6.146;2023-04-23T05:35:24;100611.88;;;10.34;100.00
31538;BME280;18147;51.952;6.146;2023-04-23T05:37:50;100605.81;;;10.45;100.00
31538;BME280;18147;51.952;6.146;2023-04-23T05:40:15;100613.03;;;10.43;100.00
31538;BME280;18147;51.952;6.146;2023-04-23T05:42:41;100613.22;;;10.54;100.00
31538;BME280;18147;51.952;6.146;2023-04-23T05:45:07;100603.41;;;10.68;100.00
31538;BME280;18147;51.952;6.146;2023-04-23T05:47:33;100601.28;;;10.73;100.00
31538;BME280;18147;51.952;6.146;2023-04-23T05:49:58;100613.81;;;10.85;100.00
31538;BME280;18147;51.952;6.146;2023-04-23T05:52:25;100618.28;;;10.84;100.00
31538;BME280;18147;51.952;6.146;2023-04-23T05:54:51;100604.50;;;10.78;100.00
31538;BME280;18147;51.952;6.146;2023-04-23T05:57:16;100609.63;;;10.81;100.00
31538;BME280;18147;51.952;6.146;2023-04-23T05:59:42;100606.72;;;10.84;100.00
31538;BME280;18147;51.952;6.146;2023-04-23T06:02:09;100606.09;;;10.93;100.00
31538;BME280;18147;51.952;6.146;2023-04-23T06:04:35;100608.78;;;10.93;100.00
31538;BME280;18147;51.952;6.146;2023-04-23T06:07:01;100604.22;;;10.95;100.00
31538;BME280;18147;51.952;6.146;2023-04-23T06:09:26;100608.56;;;10.96;100.00
31538;BME280;18147;51.952;6.146;2023-04-23T06:11:52;100609.53;;;11.08;100.00
31538;BME280;18147;51.952;6.146;2023-04-23T06:14:18;100611.88;;;11.38;100.00
31538;BME280;18147;51.952;6.146;2023-04-23T06:16:43;100609.09;;;11.65;100.00
31538;BME280;18147;51.952;6.146;2023-04-23T06:19:09;100589.44;;;12.03;100.00
31538;BME280;18147;51.952;6.146;2023-04-23T06:21:36;100596.03;;;12.69;100.00
31538;BME280;18147;51.952;6.146;2023-04-23T06:24:01;100581.31;;;13.21;100.00
31538;BME280;18147;51.952;6.146;2023-04-23T06:26:27;100575.03;;;13.56;100.00
31538;BME280;18147;51.952;6.146;2023-04-23T06:28:56;100576.00;;;13.66;100.00
31538;BME280;18147;51.952;6.146;2023-04-23T06:31:35;100570.03;;;14.17;100.00
31538;BME280;18147;51.952;6.146;2023-04-23T06:34:01;100545.81;;;14.07;100.00
31538;BME280;18147;51.952;6.146;2023-04-23T06:36:26;100547.72;;;14.48;100.00
31538;BME280;18147;51.952;6.146;2023-04-23T06:38:52;100559.72;;;14.65;100.00
31538;BME280;18147;51.952;6.146;2023-04-23T06:41:17;100554.94;;;14.90;100.00
31538;BME280;18147;51.952;6.146;2023-04-23T06:43:43;100556.69;;;15.00;100.00
31538;BME280;18147;51.952;6.146;2023-04-23T06:46:25;100552.25;;;14.90;100.00
31538;BME280;18147;51.952;6.146;2023-04-23T06:48:50;100554.41;;;14.75;100.00
31538;BME280;18147;51.952;6.146;2023-04-23T06:51:16;100552.50;;;14.66;100.00
31538;BME280;18147;51.952;6.146;2023-04-23T06:53:41;100542.00;;;15.35;100.00
31538;BME280;18147;51.952;6.146;2023-04-23T06:56:07;100537.94;;;15.41;100.00
31538;BME280;18147;51.952;6.146;2023-04-23T06:58:33;100541.06;;;15.46;100.00
31538;BME280;18147;51.952;6.146;2023-04-23T07:01:01;100542.19;;;15.43;100.00
31538;BME280;18147;51.952;6.146;2023-04-23T07:03:32;100542.63;;;15.48;100.00
31538;BME280;18147;51.952;6.146;2023-04-23T07:05:58;100537.13;;;15.50;100.00
31538;BME280;18147;51.952;6.146;2023-04-23T07:08:24;100533.88;;;15.46;100.00
31538;BME280;18147;51.952;6.146;2023-04-23T07:10:49;100528.94;;;15.61;100.00
31538;BME280;18147;51.952;6.146;2023-04-23T07:13:16;100527.78;;;15.44;100.00
31538;BME280;18147;51.952;6.146;2023-04-23T07:15:41;100530.84;;;15.70;100.00
31538;BME280;18147;51.952;6.146;2023-04-23T07:18:08;100530.28;;;15.67;100.00
31538;BME280;18147;51.952;6.146;2023-04-23T07:20:34;100535.09;;;15.73;100.00
31538;BME280;18147;51.952;6.146;2023-04-23T07:23:00;100517.09;;;15.64;100.00
31538;BME280;18147;51.952;6.146;2023-04-23T07:25:25;100519.13;;;15.81;100.00
31538;BME280;18147;51.952;6.146;2023-04-23T07:27:52;100512.34;;;15.77;100.00
31538;BME280;18147;51.952;6.146;2023-04-23T07:30:38;100510.66;;;16.15;100.00
31538;BME280;18147;51.952;6.146;2023-04-23T07:33:03;100513.06;;;15.98;100.00
31538;BME280;18147;51.952;6.146;2023-04-23T07:35:29;100507.84;;;16.07;100.00
31538;BME280;18147;51.952;6.146;2023-04-23T07:37:55;100505.28;;;16.05;100.00
31538;BME280;18147;51.952;6.146;2023-04-23T07:40:22;100508.81;;;16.35;100.00
31538;BME280;18147;51.952;6.146;2023-04-23T07:42:49;100508.66;;;16.36;100.00
31538;BME280;18147;51.952;6.146;2023-04-23T07:45:16;100511.06;;;16.58;100.00
31538;BME280;18147;51.952;6.146;2023-04-23T07:47:42;100506.94;;;16.64;100.00
31538;BME280;18147;51.952;6.146;2023-04-23T07:50:08;100509.47;;;16.85;100.00
31538;BME280;18147;51.952;6.146;2023-04-23T07:52:34;100502.13;;;16.87;100.00
31538;BME280;18147;51.952;6.146;2023-04-23T07:55:01;100502.56;;;16.82;100.00
31538;BME280;18147;51.952;6.146;2023-04-23T07:57:26;100503.56;;;16.52;100.00
31538;BME280;18147;51.952;6.146;2023-04-23T07:59:52;100505.22;;;17.29;100.00
31538;BME280;18147;51.952;6.146;2023-04-23T08:02:17;100511.75;;;16.80;100.00
31538;BME280;18147;51.952;6.146;2023-04-23T08:04:48;100506.22;;;16.81;100.00
31538;BME280;18147;51.952;6.146;2023-04-23T08:07:14;100513.94;;;17.14;100.00
31538;BME280;18147;51.952;6.146;2023-04-23T08:09:39;100502.28;;;17.23;100.00
31538;BME280;18147;51.952;6.146;2023-04-23T08:12:05;100493.09;;;17.06;100.00
31538;BME280;18147;51.952;6.146;2023-04-23T08:14:30;100499.97;;;16.91;100.00
31538;BME280;18147;51.952;6.146;2023-04-23T08:16:56;100492.06;;;16.79;100.00
31538;BME280;18147;51.952;6.146;2023-04-23T08:19:22;100499.41;;;16.97;100.00
31538;BME280;18147;51.952;6.146;2023-04-23T08:21:47;100492.19;;;16.88;100.00
31538;BME280;18147;51.952;6.146;2023-04-23T08:24:13;100495.88;;;17.24;100.00
31538;BME280;18147;51.952;6.146;2023-04-23T08:26:39;100488.22;;;17.19;100.00
31538;BME280;18147;51.952;6.146;2023-04-23T08:29:04;100484.28;;;17.41;100.00
31538;BME280;18147;51.952;6.146;2023-04-23T08:31:30;100480.88;;;17.67;100.00
31538;BME280;18147;51.952;6.146;2023-04-23T08:33:55;100482.31;;;18.06;100.00
31538;BME280;18147;51.952;6.146;2023-04-23T08:36:21;100480.75;;;17.68;100.00
31538;BME280;18147;51.952;6.146;2023-04-23T08:38:47;100486.03;;;17.60;100.00
31538;BME280;18147;51.952;6.146;2023-04-23T08:41:14;100486.34;;;17.84;100.00
31538;BME280;18147;51.952;6.146;2023-04-23T08:46:42;100483.38;;;17.50;100.00
31538;BME280;18147;51.952;6.146;2023-04-23T08:49:13;100485.19;;;18.05;100.00
31538;BME280;18147;51.952;6.146;2023-04-23T08:51:42;100484.69;;;17.92;100.00
31538;BME280;18147;51.952;6.146;2023-04-23T08:54:14;100479.50;;;18.08;96.66
31538;BME280;18147;51.952;6.146;2023-04-23T08:56:40;100480.09;;;17.84;95.67
31538;BME280;18147;51.952;6.146;2023-04-23T08:59:06;100478.88;;;18.14;100.00
31538;BME280;18147;51.952;6.146;2023-04-23T09:01:32;100481.22;;;18.35;98.00
31538;BME280;18147;51.952;6.146;2023-04-23T09:03:59;100470.50;;;18.25;96.07
31538;BME280;18147;51.952;6.146;2023-04-23T09:06:25;100475.53;;;17.84;93.90
31538;BME280;18147;51.952;6.146;2023-04-23T09:08:51;100472.06;;;17.92;93.67
31538;BME280;18147;51.952;6.146;2023-04-23T09:11:17;100471.16;;;17.83;91.12
31538;BME280;18147;51.952;6.146;2023-04-23T09:13:44;100467.00;;;17.89;97.16
31538;BME280;18147;51.952;6.146;2023-04-23T09:16:10;100468.53;;;18.09;97.69
31538;BME280;18147;51.952;6.146;2023-04-23T09:18:36;100472.84;;;18.20;93.65
31538;BME280;18147;51.952;6.146;2023-04-23T09:21:02;100465.00;;;18.53;94.59
31538;BME280;18147;51.952;6.146;2023-04-23T09:23:29;100455.34;;;18.24;94.32
31538;BME280;18147;51.952;6.146;2023-04-23T09:25:56;100461.75;;;18.05;88.18
31538;BME280;18147;51.952;6.146;2023-04-23T09:28:36;100460.09;;;18.30;87.14
31538;BME280;18147;51.952;6.146;2023-04-23T09:31:05;100464.19;;;18.60;89.29
31538;BME280;18147;51.952;6.146;2023-04-23T09:33:34;100452.56;;;18.60;85.13
31538;BME280;18147;51.952;6.146;2023-04-23T09:36:08;100444.97;;;18.37;83.91
31538;BME280;18147;51.952;6.146;2023-04-23T09:38:35;100450.69;;;18.60;86.05
31538;BME280;18147;51.952;6.146;2023-04-23T09:41:23;100448.84;;;18.87;85.22
31538;BME280;18147;51.952;6.146;2023-04-23T09:43:52;100450.41;;;19.24;79.99
31538;BME280;18147;51.952;6.146;2023-04-23T09:46:17;100444.63;;;18.84;76.87
31538;BME280;18147;51.952;6.146;2023-04-23T09:48:43;100443.97;;;18.91;78.84
31538;BME280;18147;51.952;6.146;2023-04-23T09:51:12;100445.34;;;19.29;77.23
31538;BME280;18147;51.952;6.146;2023-04-23T09:53:40;100443.81;;;18.92;78.35
31538;BME280;18147;51.952;6.146;2023-04-23T09:56:07;100437.19;;;18.78;73.30
31538;BME280;18147;51.952;6.146;2023-04-23T09:58:33;100433.66;;;19.20;73.98
31538;BME280;18147;51.952;6.146;2023-04-23T10:01:06;100432.06;;;19.44;74.41
31538;BME280;18147;51.952;6.146;2023-04-23T10:03:32;100439.16;;;19.53;74.55
31538;BME280;18147;51.952;6.146;2023-04-23T10:05:57;100435.03;;;19.75;74.10
31538;BME280;18147;51.952;6.146;2023-04-23T10:08:24;100431.66;;;19.97;70.64
31538;BME280;18147;51.952;6.146;2023-04-23T10:10:50;100428.41;;;19.77;68.44
31538;BME280;18147;51.952;6.146;2023-04-23T10:13:17;100437.50;;;19.18;68.39
31538;BME280;18147;51.952;6.146;2023-04-23T10:15:45;100437.19;;;19.21;69.23
31538;BME280;18147;51.952;6.146;2023-04-23T10:18:13;100427.69;;;19.59;69.25
31538;BME280;18147;51.952;6.146;2023-04-23T10:20:40;100431.94;;;19.61;68.10
31538;BME280;18147;51.952;6.146;2023-04-23T10:23:07;100431.34;;;19.41;68.38
31538;BME280;18147;51.952;6.146;2023-04-23T10:25:35;100429.97;;;19.29;67.67
31538;BME280;18147;51.952;6.146;2023-04-23T10:28:05;100432.63;;;19.21;70.97
31538;BME280;18147;51.952;6.146;2023-04-23T10:30:32;100421.72;;;19.47;67.25
31538;BME280;18147;51.952;6.146;2023-04-23T10:32:59;100420.75;;;19.48;67.87
31538;BME280;18147;51.952;6.146;2023-04-23T10:35:26;100423.88;;;19.86;69.63
31538;BME280;18147;51.952;6.146;2023-04-23T10:37:52;100426.16;;;19.48;66.77
31538;BME280;18147;51.952;6.146;2023-04-23T10:40:20;100421.22;;;19.44;66.08
31538;BME280;18147;51.952;6.146;2023-04-23T10:42:49;100414.75;;;19.95;64.76
31538;BME280;18147;51.952;6.146;2023-04-23T10:45:17;100406.97;;;20.16;62.43
31538;BME280;18147;51.952;6.146;2023-04-23T10:47:46;100406.31;;;19.98;61.32
31538;BME280;18147;51.952;6.146;2023-04-23T10:52:45;100409.84;;;20.15;60.89
31538;BME280;18147;51.952;6.146;2023-04-23T10:55:16;100407.16;;;19.99;59.18
31538;BME280;18147;51.952;6.146;2023-04-23T11:00:25;100392.56;;;19.75;58.12
31538;BME280;18147;51.952;6.146;2023-04-23T11:02:51;100390.22;;;19.80;58.99
31538;BME280;18147;51.952;6.146;2023-04-23T11:05:17;100392.81;;;19.48;58.34
31538;BME280;18147;51.952;6.146;2023-04-23T11:08:01;100389.78;;;19.42;61.13
31538;BME280;18147;51.952;6.146;2023-04-23T11:10:27;100390.47;;;19.45;60.58
31538;BME280;18147;51.952;6.146;2023-04-23T11:12:54;100385.81;;;19.87;60.13
31538;BME280;18147;51.952;6.146;2023-04-23T11:15:20;100381.91;;;20.06;60.21
31538;BME280;18147;51.952;6.146;2023-04-23T11:20:13;100365.50;;;20.24;58.82
31538;BME280;18147;51.952;6.146;2023-04-23T11:22:47;100364.69;;;19.99;60.45
31538;BME280;18147;51.952;6.146;2023-04-23T11:25:15;100368.91;;;19.94;58.12
31538;BME280;18147;51.952;6.146;2023-04-23T11:27:44;100361.44;;;19.87;59.36
31538;BME280;18147;51.952;6.146;2023-04-23T11:30:14;100357.53;;;20.31;58.69
31538;BME280;18147;51.952;6.146;2023-04-23T11:32:41;100356.31;;;20.41;60.34
31538;BME280;18147;51.952;6.146;2023-04-23T11:35:09;100354.31;;;20.27;58.78
31538;BME280;18147;51.952;6.146;2023-04-23T11:37:45;100355.81;;;19.56;58.39
31538;BME280;18147;51.952;6.146;2023-04-23T11:40:14;100353.84;;;19.75;58.75
31538;BME280;18147;51.952;6.146;2023-04-23T11:42:51;100344.03;;;19.82;58.52
31538;BME280;18147;51.952;6.146;2023-04-23T11:45:26;100342.50;;;20.04;59.52
31538;BME280;18147;51.952;6.146;2023-04-23T11:47:53;100346.56;;;19.75;60.66
31538;BME280;18147;51.952;6.146;2023-04-23T11:50:26;100338.81;;;19.64;62.94
31538;BME280;18147;51.952;6.146;2023-04-23T11:52:52;100342.66;;;19.61;65.08
31538;BME280;18147;51.952;6.146;2023-04-23T11:55:19;100338.09;;;20.19;67.06
31538;BME280;18147;51.952;6.146;2023-04-23T11:57:47;100338.41;;;20.24;63.40
31538;BME280;18147;51.952;6.146;2023-04-23T12:00:20;100340.66;;;19.80;66.94
31538;BME280;18147;51.952;6.146;2023-04-23T12:05:22;100321.19;;;19.44;69.66
31538;BME280;18147;51.952;6.146;2023-04-23T12:07:52;100319.19;;;19.70;69.85
31538;BME280;18147;51.952;6.146;2023-04-23T12:10:21;100307.16;;;19.73;66.21
31538;BME280;18147;51.952;6.146;2023-04-23T12:12:51;100303.75;;;20.20;66.32
31538;BME280;18147;51.952;6.146;2023-04-23T12:15:17;100291.88;;;20.12;66.46
31538;BME280;18147;51.952;6.146;2023-04-23T12:17:50;100289.97;;;20.85;67.09
31538;BME280;18147;51.952;6.146;2023-04-23T12:20:18;100289.72;;;21.26;64.99
31538;BME280;18147;51.952;6.146;2023-04-23T12:22:44;100274.94;;;21.36;59.28
31538;BME280;18147;51.952;6.146;2023-04-23T12:25:09;100275.66;;;21.30;59.34
31538;BME280;18147;51.952;6.146;2023-04-23T12:27:39;100283.31;;;21.18;60.76
31538;BME280;18147;51.952;6.146;2023-04-23T12:30:06;100275.81;;;21.52;58.65
31538;BME280;18147;51.952;6.146;2023-04-23T12:32:33;100270.19;;;21.76;59.68
31538;BME280;18147;51.952;6.146;2023-04-23T12:34:59;100274.53;;;21.62;59.45
31538;BME280;18147;51.952;6.146;2023-04-23T12:37:29;100257.84;;;21.88;57.82
31538;BME280;18147;51.952;6.146;2023-04-23T12:39:55;100263.38;;;21.80;56.02
31538;BME280;18147;51.952;6.146;2023-04-23T12:42:24;100252.28;;;21.67;55.17
31538;BME280;18147;51.952;6.146;2023-04-23T12:44:49;100246.81;;;21.52;54.87
31538;BME280;18147;51.952;6.146;2023-04-23T12:47:19;100240.94;;;22.45;56.99
31538;BME280;18147;51.952;6.146;2023-04-23T12:49:47;100245.22;;;22.69;56.41
31538;BME280;18147;51.952;6.146;2023-04-23T12:52:14;100244.22;;;22.41;56.80
31538;BME280;18147;51.952;6.146;2023-04-23T12:54:40;100248.84;;;21.88;57.97
31538;BME280;18147;51.952;6.146;2023-04-23T12:57:07;100245.56;;;21.78;58.40
31538;BME280;18147;51.952;6.146;2023-04-23T12:59:38;100241.88;;;21.56;57.39